Time;durP1;ratioP1;P1;durP2;ratioP2;P2;SDS_P1;SDS_P2;PMS_P1;PMS_P2;Temp;Humidity;BMP_temperature;BMP_pressure;BME280_temperature;BME280_humidity;BME280_pressure;Samples;Min_cycle;Max_cycle;Signal;HPM_P1;HPM_P2
2022/12/24 00:04:33;;;;;;;;;;;17.90;56.20;;;;;;10246934;28;1055;-69
2022/12/24 00:09:29;;;;;;;;;;;17.90;56.20;;;;;;10247796;28;930;-69
2022/12/24 00:14:24;;;;;;;;;;;17.90;56.00;;;;;;10246892;28;1919;-69
2022/12/24 00:19:19;;;;;;;;;;;17.90;56.00;;;;;;10247393;28;872;-69
2022/12/24 00:24:17;;;;;;;;;;;17.90;55.90;;;;;;10246601;28;870;-66
2022/12/24 00:29:12;;;;;;;;;;;17.90;55.90;;;;;;10246445;28;921;-71
2022/12/24 00:34:08;;;;;;;;;;;17.90;55.90;;;;;;10246067;28;1906;-73
2022/12/24 00:39:03;;;;;;;;;;;17.90;56.00;;;;;;10246006;28;802;-73
2022/12/24 00:43:58;;;;;;;;;;;17.90;56.00;;;;;;10245730;28;877;-72
2022/12/24 00:48:54;;;;;;;;;;;17.90;55.80;;;;;;10245744;28;947;-72
2022/12/24 00:53:49;;;;;;;;;;;17.90;55.80;;;;;;10245352;28;1906;-72
2022/12/24 00:58:45;;;;;;;;;;;17.90;55.80;;;;;;10245098;28;763;-73
2022/12/24 01:03:40;;;;;;;;;;;17.80;55.80;;;;;;10244548;28;762;-72
2022/12/24 01:08:35;;;;;;;;;;;17.90;55.80;;;;;;10244925;28;818;-73
2022/12/24 01:13:31;;;;;;;;;;;17.80;55.70;;;;;;10244773;28;1910;-73
2022/12/24 01:18:26;;;;;;;;;;;17.80;55.70;;;;;;10244828;28;945;-73
2022/12/24 01:23:21;;;;;;;;;;;17.80;55.70;;;;;;10244265;28;759;-72
2022/12/24 01:28:17;;;;;;;;;;;17.80;55.60;;;;;;10243853;28;838;-72
2022/12/24 01:33:12;;;;;;;;;;;17.80;55.50;;;;;;10244838;28;1934;-72
2022/12/24 01:38:07;;;;;;;;;;;17.80;55.60;;;;;;10244224;28;790;-72
2022/12/24 01:48:17;;;;;;;;;;;17.80;55.50;;;;;;10244135;28;608;-72
2022/12/24 01:53:12;;;;;;;;;;;17.80;55.50;;;;;;10244077;28;853;-73
2022/12/24 01:58:08;;;;;;;;;;;17.80;55.30;;;;;;10243229;28;924;-72
2022/12/24 02:03:03;;;;;;;;;;;17.80;55.30;;;;;;10244260;28;1029;-72
2022/12/24 02:07:58;;;;;;;;;;;17.80;55.20;;;;;;10244238;28;873;-73
2022/12/24 02:12:54;;;;;;;;;;;17.80;55.30;;;;;;10249017;28;901;-72
2022/12/24 02:17:49;;;;;;;;;;;17.80;55.30;;;;;;10251452;28;1906;-72
2022/12/24 02:22:45;;;;;;;;;;;17.90;55.20;;;;;;10251774;28;838;-72
2022/12/24 02:27:40;;;;;;;;;;;17.80;55.20;;;;;;10251104;28;850;-72
2022/12/24 02:32:35;;;;;;;;;;;17.80;55.10;;;;;;10251475;28;1315;-72
2022/12/24 02:37:31;;;;;;;;;;;17.80;55.00;;;;;;10250912;28;1918;-72
2022/12/24 02:42:26;;;;;;;;;;;17.80;55.00;;;;;;10250499;28;857;-72
2022/12/24 02:47:21;;;;;;;;;;;17.80;55.00;;;;;;10251023;28;798;-72
2022/12/24 02:52:17;;;;;;;;;;;17.80;54.90;;;;;;10250177;28;891;-72
2022/12/24 02:57:12;;;;;;;;;;;17.80;54.90;;;;;;10249942;28;1906;-72
2022/12/24 03:02:07;;;;;;;;;;;17.80;54.80;;;;;;10250366;28;1030;-72
2022/12/24 03:07:03;;;;;;;;;;;17.80;54.90;;;;;;10249611;28;772;-72
2022/12/24 03:11:58;;;;;;;;;;;17.80;54.80;;;;;;10248844;28;940;-72
2022/12/24 03:16:54;;;;;;;;;;;17.80;54.90;;;;;;10249768;28;1957;-72
2022/12/24 03:21:49;;;;;;;;;;;17.80;54.80;;;;;;10249458;28;810;-72
2022/12/24 03:26:44;;;;;;;;;;;17.80;54.80;;;;;;10248495;28;865;-72
2022/12/24 03:31:40;;;;;;;;;;;17.80;54.70;;;;;;10248741;28;764;-72
2022/12/24 03:36:35;;;;;;;;;;;17.80;54.70;;;;;;10247867;28;1914;-72
2022/12/24 03:41:30;;;;;;;;;;;17.80;54.80;;;;;;10248359;28;813;-72
2022/12/24 03:46:26;;;;;;;;;;;17.80;54.80;;;;;;10248744;28;902;-72
2022/12/24 03:51:21;;;;;;;;;;;17.80;54.70;;;;;;10247981;28;805;-72
2022/12/24 03:56:17;;;;;;;;;;;17.80;54.70;;;;;;10247675;28;1898;-72
2022/12/24 04:01:12;;;;;;;;;;;17.80;54.70;;;;;;10248208;28;811;-72
2022/12/24 04:06:07;;;;;;;;;;;17.80;54.70;;;;;;10247991;28;906;-72
2022/12/24 04:11:03;;;;;;;;;;;17.80;54.70;;;;;;10247820;28;863;-72
2022/12/24 04:15:58;;;;;;;;;;;17.80;54.70;;;;;;10246949;28;1902;-73
2022/12/24 04:20:53;;;;;;;;;;;17.80;54.60;;;;;;10246913;28;885;-72
2022/12/24 04:25:49;;;;;;;;;;;17.80;54.60;;;;;;10246070;28;874;-72
2022/12/24 04:30:44;;;;;;;;;;;17.70;54.60;;;;;;10246351;28;866;-72
2022/12/24 04:35:42;;;;;;;;;;;17.80;54.60;;;;;;10246197;28;1973;-72
2022/12/24 04:40:37;;;;;;;;;;;17.80;54.60;;;;;;10245490;28;956;-72
2022/12/24 04:45:33;;;;;;;;;;;17.80;54.60;;;;;;10245830;28;980;-72
2022/12/24 04:50:28;;;;;;;;;;;17.80;54.60;;;;;;10246255;28;784;-72
2022/12/24 04:55:24;;;;;;;;;;;17.70;54.50;;;;;;10246004;28;1961;-72
2022/12/24 05:00:19;;;;;;;;;;;17.70;54.50;;;;;;10245937;28;850;-72
2022/12/24 05:05:14;;;;;;;;;;;17.80;54.60;;;;;;10245271;28;1046;-72
2022/12/24 05:10:10;;;;;;;;;;;17.80;54.60;;;;;;10245804;28;937;-72
2022/12/24 05:15:05;;;;;;;;;;;17.70;54.60;;;;;;10244211;28;1906;-72
2022/12/24 05:20:00;;;;;;;;;;;17.70;54.60;;;;;;10245282;28;869;-72
2022/12/24 05:30:10;;;;;;;;;;;17.80;54.60;;;;;;10245492;28;616;-69
2022/12/24 05:35:05;;;;;;;;;;;17.80;54.50;;;;;;10244763;28;1909;-70
2022/12/24 05:40:01;;;;;;;;;;;17.80;54.50;;;;;;10244260;28;798;-69
2022/12/24 05:44:56;;;;;;;;;;;17.80;54.30;;;;;;10244026;28;881;-70
2022/12/24 05:49:51;;;;;;;;;;;17.80;54.40;;;;;;10245211;28;912;-70
2022/12/24 05:54:47;;;;;;;;;;;17.90;54.30;;;;;;10244455;28;1965;-70
2022/12/24 05:59:42;;;;;;;;;;;17.90;54.40;;;;;;10243257;28;842;-72
2022/12/24 06:04:37;;;;;;;;;;;17.90;54.30;;;;;;10243745;28;802;-70
2022/12/24 06:09:33;;;;;;;;;;;17.90;54.20;;;;;;10243680;28;893;-70
2022/12/24 06:14:28;;;;;;;;;;;17.90;54.20;;;;;;10243469;28;1905;-72
2022/12/24 06:19:24;;;;;;;;;;;17.90;54.20;;;;;;10243476;28;892;-69
2022/12/24 06:24:19;;;;;;;;;;;17.90;54.20;;;;;;10243985;28;806;-69
2022/12/24 06:29:14;;;;;;;;;;;17.90;54.20;;;;;;10243964;28;917;-69
2022/12/24 06:34:10;;;;;;;;;;;17.90;54.20;;;;;;10242245;28;1979;-69
2022/12/24 06:39:05;;;;;;;;;;;17.90;54.10;;;;;;10242525;28;838;-70
2022/12/24 06:44:00;;;;;;;;;;;17.90;54.10;;;;;;10242912;28;930;-70
2022/12/24 06:48:56;;;;;;;;;;;17.90;54.20;;;;;;10243538;28;760;-67
2022/12/24 06:53:51;;;;;;;;;;;17.90;54.20;;;;;;10242650;28;1957;-67
2022/12/24 06:58:47;;;;;;;;;;;18.10;54.60;;;;;;10245171;28;835;-65
2022/12/24 07:03:42;;;;;;;;;;;18.10;54.60;;;;;;10250370;28;814;-67
2022/12/24 07:08:37;;;;;;;;;;;18.10;54.80;;;;;;10250039;28;803;-67
2022/12/24 07:13:33;;;;;;;;;;;18.10;54.50;;;;;;10249889;28;1959;-67
2022/12/24 07:18:28;;;;;;;;;;;18.10;54.70;;;;;;10249055;28;856;-67
2022/12/24 07:23:23;;;;;;;;;;;18.10;55.00;;;;;;10248790;28;962;-67
2022/12/24 07:28:19;;;;;;;;;;;18.10;55.00;;;;;;10248623;28;840;-67
2022/12/24 07:33:14;;;;;;;;;;;18.00;55.00;;;;;;10247932;28;1146;-66
2022/12/24 07:38:10;;;;;;;;;;;18.00;55.00;;;;;;10248188;28;1975;-66
2022/12/24 07:43:05;;;;;;;;;;;18.00;55.30;;;;;;10248376;28;937;-66
2022/12/24 07:48:00;;;;;;;;;;;18.00;55.60;;;;;;10248749;28;894;-66
2022/12/24 07:52:56;;;;;;;;;;;18.10;55.70;;;;;;10248574;28;865;-66
2022/12/24 07:57:51;;;;;;;;;;;18.10;55.60;;;;;;10247123;28;1961;-67
2022/12/24 08:02:46;;;;;;;;;;;18.10;55.60;;;;;;10247640;28;1033;-66
2022/12/24 08:07:42;;;;;;;;;;;18.10;55.60;;;;;;10247389;28;909;-68
2022/12/24 08:12:37;;;;;;;;;;;18.20;55.60;;;;;;10246882;28;1018;-67
2022/12/24 08:17:32;;;;;;;;;;;18.20;55.60;;;;;;10246930;28;1964;-66
2022/12/24 08:22:28;;;;;;;;;;;18.20;55.60;;;;;;10247371;28;901;-65
2022/12/24 08:27:23;;;;;;;;;;;17.60;53.40;;;;;;10247169;28;772;-66
2022/12/24 08:32:18;;;;;;;;;;;14.80;56.90;;;;;;10246032;28;1231;-69
2022/12/24 08:37:14;;;;;;;;;;;14.30;58.60;;;;;;10245998;28;1910;-68
2022/12/24 08:42:09;;;;;;;;;;;15.60;57.40;;;;;;10245424;28;881;-68
2022/12/24 08:47:05;;;;;;;;;;;16.60;55.20;;;;;;10246143;28;767;-71
2022/12/24 08:52:00;;;;;;;;;;;16.90;54.40;;;;;;10245661;28;834;-72
2022/12/24 08:56:55;;;;;;;;;;;17.20;54.10;;;;;;10245164;28;1956;-72
2022/12/24 09:01:51;;;;;;;;;;;17.20;54.00;;;;;;10244772;28;944;-72
2022/12/24 09:06:46;;;;;;;;;;;17.30;53.90;;;;;;10245148;28;853;-70
2022/12/24 09:11:41;;;;;;;;;;;17.30;53.90;;;;;;10245068;28;913;-70
2022/12/24 09:16:37;;;;;;;;;;;17.40;53.90;;;;;;10244818;28;1874;-69
2022/12/24 09:21:32;;;;;;;;;;;17.40;53.90;;;;;;10244728;28;865;-69
2022/12/24 09:26:28;;;;;;;;;;;17.40;53.80;;;;;;10244586;28;916;-69
2022/12/24 09:31:24;;;;;;;;;;;17.50;53.90;;;;;;10244369;28;914;-69
2022/12/24 09:36:19;;;;;;;;;;;17.50;53.90;;;;;;10243358;28;1910;-69
2022/12/24 09:41:15;;;;;;;;;;;17.50;53.90;;;;;;10244214;28;869;-69
2022/12/24 09:46:10;;;;;;;;;;;17.50;53.80;;;;;;10244723;28;787;-71
2022/12/24 09:51:07;;;;;;;;;;;17.50;53.80;;;;;;10243996;28;845;-69
2022/12/24 09:56:03;;;;;;;;;;;17.50;53.80;;;;;;10243782;28;1898;-65
2022/12/24 10:00:58;;;;;;;;;;;17.70;54.10;;;;;;10244420;28;937;-69
2022/12/24 10:05:53;;;;;;;;;;;17.80;54.50;;;;;;10244315;28;928;-68
2022/12/24 10:10:49;;;;;;;;;;;17.90;54.60;;;;;;10244200;28;859;-67
2022/12/24 10:15:45;;;;;;;;;;;17.90;54.60;;;;;;10243753;28;1898;-69
2022/12/24 10:20:40;;;;;;;;;;;17.90;54.80;;;;;;10243528;28;905;-70
2022/12/24 10:25:36;;;;;;;;;;;17.90;55.00;;;;;;10242657;28;1002;-73
2022/12/24 10:30:31;;;;;;;;;;;17.80;55.00;;;;;;10243238;28;896;-74
2022/12/24 10:35:27;;;;;;;;;;;17.90;55.20;;;;;;10248650;28;1910;-71
2022/12/24 10:40:22;;;;;;;;;;;17.90;55.60;;;;;;10250707;28;895;-73
2022/12/24 10:45:18;;;;;;;;;;;18.00;55.70;;;;;;10250513;28;929;-71
2022/12/24 10:50:13;;;;;;;;;;;18.00;55.90;;;;;;10250249;28;862;-70
2022/12/24 10:55:10;;;;;;;;;;;18.00;55.90;;;;;;10250093;28;1903;-72
2022/12/24 11:00:05;;;;;;;;;;;18.00;55.70;;;;;;10250049;28;838;-70
2022/12/24 11:05:00;;;;;;;;;;;18.00;55.80;;;;;;10250123;28;1048;-71
2022/12/24 11:09:56;;;;;;;;;;;18.00;56.00;;;;;;10249648;28;1048;-71
2022/12/24 11:14:51;;;;;;;;;;;18.10;56.40;;;;;;10249717;28;1895;-72
2022/12/24 11:19:47;;;;;;;;;;;18.10;56.70;;;;;;10249173;28;952;-71
2022/12/24 11:24:42;;;;;;;;;;;18.10;56.80;;;;;;10249634;28;850;-72
2022/12/24 11:29:37;;;;;;;;;;;18.10;56.90;;;;;;10248913;28;849;-73
2022/12/24 11:34:33;;;;;;;;;;;18.10;57.10;;;;;;10249223;28;1902;-71
2022/12/24 11:39:28;;;;;;;;;;;18.10;57.70;;;;;;10248516;28;883;-72
2022/12/24 11:44:24;;;;;;;;;;;18.20;58.00;;;;;;10247880;28;874;-73
2022/12/24 11:49:19;;;;;;;;;;;18.20;58.40;;;;;;10248131;28;891;-71
2022/12/24 11:54:15;;;;;;;;;;;18.20;58.50;;;;;;10248661;28;1955;-74
2022/12/24 11:59:10;;;;;;;;;;;18.20;58.70;;;;;;10247776;28;834;-69
2022/12/24 12:04:05;;;;;;;;;;;18.10;59.20;;;;;;10248231;28;802;-71
2022/12/24 12:09:01;;;;;;;;;;;18.10;59.70;;;;;;10247435;28;967;-71
2022/12/24 12:13:56;;;;;;;;;;;18.10;60.80;;;;;;10247353;28;1898;-71
2022/12/24 12:18:51;;;;;;;;;;;18.20;61.30;;;;;;10247516;28;818;-71
2022/12/24 12:23:47;;;;;;;;;;;18.20;61.90;;;;;;10246726;28;1070;-69
2022/12/24 12:28:42;;;;;;;;;;;18.20;62.00;;;;;;10246516;28;925;-69
2022/12/24 12:33:38;;;;;;;;;;;18.20;61.00;;;;;;10246225;28;1910;-69
2022/12/24 12:38:33;;;;;;;;;;;18.30;60.30;;;;;;10246256;28;901;-68
2022/12/24 12:43:28;;;;;;;;;;;18.30;59.90;;;;;;10246076;28;917;-69
2022/12/24 12:48:24;;;;;;;;;;;18.20;59.60;;;;;;10246438;28;940;-71
2022/12/24 12:53:19;;;;;;;;;;;18.20;60.70;;;;;;10245681;28;984;-71
2022/12/24 12:58:14;;;;;;;;;;;18.20;61.60;;;;;;10245319;28;1898;-72
2022/12/24 13:03:10;;;;;;;;;;;18.10;60.70;;;;;;10245918;28;853;-72
2022/12/24 13:08:06;;;;;;;;;;;18.20;60.90;;;;;;10245844;28;865;-72
2022/12/24 13:13:01;;;;;;;;;;;18.30;61.30;;;;;;10245456;28;923;-72
2022/12/24 13:17:56;;;;;;;;;;;18.30;61.80;;;;;;10244847;28;1956;-76
2022/12/24 13:22:52;;;;;;;;;;;18.30;62.40;;;;;;10244728;28;968;-76
2022/12/24 13:27:47;;;;;;;;;;;18.10;62.40;;;;;;10244703;28;788;-77
2022/12/24 13:32:42;;;;;;;;;;;18.00;61.70;;;;;;10244324;28;1310;-77
2022/12/24 13:37:38;;;;;;;;;;;17.90;61.10;;;;;;10244341;28;1967;-76
2022/12/24 13:42:33;;;;;;;;;;;17.90;60.80;;;;;;10244775;28;810;-76
2022/12/24 13:47:28;;;;;;;;;;;17.90;60.30;;;;;;10244019;28;894;-77
2022/12/24 13:52:24;;;;;;;;;;;17.90;59.90;;;;;;10243405;28;1023;-76
2022/12/24 13:57:19;;;;;;;;;;;17.90;59.60;;;;;;10243825;28;1953;-75
2022/12/24 14:02:15;;;;;;;;;;;18.00;59.40;;;;;;10243728;28;983;-76
2022/12/24 14:07:10;;;;;;;;;;;18.00;59.20;;;;;;10245521;28;822;-75
2022/12/24 14:12:05;;;;;;;;;;;18.00;59.00;;;;;;10252395;28;823;-78
2022/12/24 14:17:01;;;;;;;;;;;18.00;59.10;;;;;;10251578;28;1957;-76
2022/12/24 14:21:56;;;;;;;;;;;18.00;59.40;;;;;;10251034;28;925;-75
2022/12/24 14:26:52;;;;;;;;;;;18.00;58.70;;;;;;10251268;28;886;-79
2022/12/24 14:31:47;;;;;;;;;;;18.00;58.50;;;;;;10251754;28;842;-77
2022/12/24 14:36:42;;;;;;;;;;;17.90;58.40;;;;;;10251336;28;1979;-76
2022/12/24 14:41:38;;;;;;;;;;;18.00;58.20;;;;;;10250692;28;889;-77
2022/12/24 14:46:34;;;;;;;;;;;18.00;58.10;;;;;;10251494;28;857;-79
2022/12/24 14:51:29;;;;;;;;;;;17.90;57.90;;;;;;10250669;28;917;-76
2022/12/24 14:56:24;;;;;;;;;;;18.00;57.90;;;;;;10250103;28;1902;-79
2022/12/24 15:01:20;;;;;;;;;;;18.00;57.70;;;;;;10249982;28;857;-81
2022/12/24 15:06:16;;;;;;;;;;;17.90;57.70;;;;;;10249849;28;791;-84
2022/12/24 15:11:11;;;;;;;;;;;17.90;57.60;;;;;;10250286;28;853;-84
2022/12/24 15:16:06;;;;;;;;;;;17.90;57.50;;;;;;10248826;28;1957;-78
2022/12/24 15:21:02;;;;;;;;;;;17.90;57.50;;;;;;10248451;28;890;-77
2022/12/24 15:25:57;;;;;;;;;;;17.90;57.40;;;;;;10249106;28;790;-78
2022/12/24 15:30:52;;;;;;;;;;;17.90;57.30;;;;;;10249511;28;821;-77
2022/12/24 15:35:48;;;;;;;;;;;17.90;57.30;;;;;;10248973;28;1985;-78
2022/12/24 15:40:43;;;;;;;;;;;17.90;57.20;;;;;;10248558;28;787;-80
2022/12/24 15:45:38;;;;;;;;;;;17.90;57.30;;;;;;10248947;28;818;-80
2022/12/24 15:50:34;;;;;;;;;;;17.90;57.20;;;;;;10249470;28;842;-78
2022/12/24 15:55:29;;;;;;;;;;;17.90;57.20;;;;;;10248051;28;1902;-78
2022/12/24 16:00:26;;;;;;;;;;;17.90;57.20;;;;;;10247822;28;909;-80
2022/12/24 16:05:21;;;;;;;;;;;17.80;57.10;;;;;;10247511;28;930;-77
2022/12/24 16:10:17;;;;;;;;;;;17.80;57.10;;;;;;10248631;28;854;-76
2022/12/24 16:15:12;;;;;;;;;;;17.80;57.10;;;;;;10247149;28;1910;-77
2022/12/24 16:20:07;;;;;;;;;;;17.70;56.70;;;;;;10247654;28;915;-76
2022/12/24 16:25:03;;;;;;;;;;;17.80;57.10;;;;;;10246733;28;954;-75
2022/12/24 16:29:58;;;;;;;;;;;17.80;56.90;;;;;;10247104;28;855;-77
2022/12/24 16:34:53;;;;;;;;;;;17.90;56.90;;;;;;10245040;28;1966;-71
2022/12/24 16:39:49;;;;;;;;;;;17.90;56.80;;;;;;10245628;28;927;-70
2022/12/24 16:44:44;;;;;;;;;;;18.10;58.10;;;;;;10246359;28;929;-71
2022/12/24 16:49:39;;;;;;;;;;;18.20;58.60;;;;;;10245874;28;762;-72
2022/12/24 16:54:35;;;;;;;;;;;18.20;58.90;;;;;;10245446;28;1982;-72
2022/12/24 16:59:31;;;;;;;;;;;18.30;59.10;;;;;;10245812;28;902;-72
2022/12/24 17:04:26;;;;;;;;;;;18.20;59.20;;;;;;10244759;28;918;-71
2022/12/24 17:09:22;;;;;;;;;;;18.30;59.30;;;;;;10245038;28;786;-70
2022/12/24 17:14:17;;;;;;;;;;;18.40;59.30;;;;;;10245520;28;1930;-71
2022/12/24 17:19:12;;;;;;;;;;;18.40;59.40;;;;;;10245863;28;865;-78
2022/12/24 17:24:08;;;;;;;;;;;18.40;59.50;;;;;;10245156;28;866;-86
2022/12/24 17:29:04;;;;;;;;;;;18.20;59.40;;;;;;10245798;28;889;-86
2022/12/24 17:33:59;;;;;;;;;;;18.20;59.10;;;;;;10244327;28;1973;-86
2022/12/24 17:38:54;;;;;;;;;;;18.10;58.90;;;;;;10245482;28;869;-79
2022/12/24 17:43:52;;;;;;;;;;;18.10;59.20;;;;;;10243891;28;905;-79
2022/12/24 17:48:48;;;;;;;;;;;18.10;58.50;;;;;;10244119;28;817;-79
2022/12/24 17:53:43;;;;;;;;;;;18.10;58.30;;;;;;10244559;28;846;-75
2022/12/24 17:58:39;;;;;;;;;;;18.10;58.20;;;;;;10244230;28;1902;-76
2022/12/24 18:03:34;;;;;;;;;;;18.10;58.00;;;;;;10243767;28;891;-75
2022/12/24 18:08:29;;;;;;;;;;;18.20;58.00;;;;;;10243342;28;834;-75
2022/12/24 18:13:25;;;;;;;;;;;18.10;57.90;;;;;;10243641;28;786;-75
2022/12/24 18:18:20;;;;;;;;;;;18.10;57.70;;;;;;10243970;28;1890;-74
2022/12/24 18:23:16;;;;;;;;;;;18.10;57.60;;;;;;10243510;28;888;-72
2022/12/24 18:28:11;;;;;;;;;;;18.20;57.70;;;;;;10243411;28;892;-71
2022/12/24 18:33:07;;;;;;;;;;;18.20;57.70;;;;;;10243625;28;1697;-73
2022/12/24 18:38:02;;;;;;;;;;;18.10;58.20;;;;;;10243995;28;1918;-71
2022/12/24 18:42:57;;;;;;;;;;;18.20;57.90;;;;;;10243132;28;917;-73
2022/12/24 18:47:53;;;;;;;;;;;18.20;57.80;;;;;;10243164;28;936;-71
2022/12/24 18:52:48;;;;;;;;;;;18.20;57.70;;;;;;10242970;28;902;-71
2022/12/24 18:57:43;;;;;;;;;;;18.20;57.50;;;;;;10250376;28;1965;-70
2022/12/24 19:02:39;;;;;;;;;;;18.20;57.40;;;;;;10250101;28;905;-72
2022/12/24 19:07:34;;;;;;;;;;;18.20;57.30;;;;;;10250462;28;904;-71
2022/12/24 19:12:29;;;;;;;;;;;18.20;57.30;;;;;;10249648;28;770;-71
2022/12/24 19:17:25;;;;;;;;;;;18.10;57.10;;;;;;10249454;28;1956;-70
2022/12/24 19:22:20;;;;;;;;;;;18.10;57.00;;;;;;10249378;28;977;-71
2022/12/24 19:27:16;;;;;;;;;;;18.20;57.00;;;;;;10249315;28;779;-71
2022/12/24 19:32:11;;;;;;;;;;;18.20;57.00;;;;;;10248646;28;806;-72
2022/12/24 19:37:07;;;;;;;;;;;18.20;56.90;;;;;;10249227;28;1972;-73
2022/12/24 19:42:02;;;;;;;;;;;18.20;56.90;;;;;;10248224;28;875;-72
2022/12/24 19:46:57;;;;;;;;;;;18.20;56.90;;;;;;10248276;28;779;-71
2022/12/24 19:51:53;;;;;;;;;;;18.20;56.80;;;;;;10247761;28;879;-71
2022/12/24 19:56:49;;;;;;;;;;;18.20;56.70;;;;;;10247268;28;1898;-75
2022/12/24 20:01:45;;;;;;;;;;;18.20;56.70;;;;;;10247801;28;907;-75
2022/12/24 20:06:41;;;;;;;;;;;18.20;56.60;;;;;;10248084;28;1010;-75
2022/12/24 20:11:36;;;;;;;;;;;18.20;56.60;;;;;;10247446;28;915;-77
2022/12/24 20:16:31;;;;;;;;;;;18.20;56.60;;;;;;10247181;28;1902;-75
2022/12/24 20:21:27;;;;;;;;;;;18.20;56.60;;;;;;10246115;28;1087;-77
2022/12/24 20:26:22;;;;;;;;;;;18.20;56.50;;;;;;10247449;28;829;-76
2022/12/24 20:31:17;;;;;;;;;;;18.20;56.50;;;;;;10247748;28;885;-70
2022/12/24 20:36:14;;;;;;;;;;;18.20;56.40;;;;;;10247251;28;1906;-70
2022/12/24 20:41:10;;;;;;;;;;;18.20;56.50;;;;;;10246412;28;864;-70
2022/12/24 20:46:05;;;;;;;;;;;18.20;56.40;;;;;;10247143;28;896;-71
2022/12/24 20:51:00;;;;;;;;;;;18.20;56.50;;;;;;10245955;28;933;-74
2022/12/24 20:55:56;;;;;;;;;;;18.10;56.40;;;;;;10245459;28;1902;-70
2022/12/24 21:00:51;;;;;;;;;;;18.10;56.40;;;;;;10245264;28;754;-70
2022/12/24 21:05:47;;;;;;;;;;;18.10;56.40;;;;;;10245064;28;881;-72
2022/12/24 21:10:42;;;;;;;;;;;18.10;56.50;;;;;;10245550;28;877;-70
2022/12/24 21:15:38;;;;;;;;;;;18.10;56.40;;;;;;10244971;28;1963;-70
2022/12/24 21:20:34;;;;;;;;;;;18.10;56.20;;;;;;10244724;28;857;-71
2022/12/24 21:25:29;;;;;;;;;;;18.10;56.20;;;;;;10245022;28;982;-70
2022/12/24 21:30:24;;;;;;;;;;;18.10;56.10;;;;;;10245496;28;857;-70
2022/12/24 21:35:20;;;;;;;;;;;18.10;56.10;;;;;;10244024;28;1902;-72
2022/12/24 21:40:15;;;;;;;;;;;18.20;56.10;;;;;;10244675;28;857;-70
2022/12/24 21:45:11;;;;;;;;;;;18.20;56.00;;;;;;10244105;28;1148;-70
2022/12/24 21:55:21;;;;;;;;;;;18.20;56.00;;;;;;10243401;28;11116;-70
2022/12/24 22:00:25;;;;;;;;;;;18.20;56.00;;;;;;10243873;28;893;-71
2022/12/24 22:05:20;;;;;;;;;;;18.20;56.00;;;;;;10244549;28;762;-70
2022/12/24 22:15:29;;;;;;;;;;;18.20;55.90;;;;;;10243134;28;1914;-71
2022/12/24 22:20:25;;;;;;;;;;;18.20;55.90;;;;;;10243051;28;908;-81
2022/12/24 22:25:20;;;;;;;;;;;18.10;55.90;;;;;;10244121;28;853;-83
2022/12/24 22:30:16;;;;;;;;;;;18.10;55.90;;;;;;10247971;28;1015;-70
2022/12/24 22:35:11;;;;;;;;;;;18.10;55.90;;;;;;10251780;28;1981;-69
2022/12/24 22:40:06;;;;;;;;;;;18.10;56.00;;;;;;10250892;28;862;-69
2022/12/24 22:45:02;;;;;;;;;;;18.10;56.00;;;;;;10251383;28;814;-69
2022/12/24 22:49:57;;;;;;;;;;;18.10;56.00;;;;;;10251170;28;877;-69
2022/12/24 22:54:53;;;;;;;;;;;18.00;56.10;;;;;;10250355;28;1910;-70
2022/12/24 22:59:48;;;;;;;;;;;18.00;56.00;;;;;;10250306;28;814;-70
2022/12/24 23:04:43;;;;;;;;;;;18.00;56.10;;;;;;10249870;28;1030;-70
2022/12/24 23:09:39;;;;;;;;;;;18.00;56.10;;;;;;10249898;28;805;-70
2022/12/24 23:19:48;;;;;;;;;;;18.00;56.10;;;;;;10249075;28;675;-70
2022/12/24 23:24:43;;;;;;;;;;;18.00;56.00;;;;;;10249269;28;880;-70
2022/12/24 23:29:39;;;;;;;;;;;18.00;56.00;;;;;;10248981;28;931;-70
2022/12/24 23:34:34;;;;;;;;;;;18.00;56.10;;;;;;10248313;28;1987;-70
2022/12/24 23:39:30;;;;;;;;;;;18.00;56.00;;;;;;10246842;28;1051;-70
2022/12/24 23:44:25;;;;;;;;;;;18.00;56.00;;;;;;10247774;28;1148;-70
2022/12/24 23:49:20;;;;;;;;;;;18.00;56.00;;;;;;10248142;28;872;-70
2022/12/24 23:54:16;;;;;;;;;;;18.00;56.00;;;;;;10247806;28;1967;-70
2022/12/24 23:59:11;;;;;;;;;;;18.00;56.00;;;;;;10247838;28;802;-70
